createdAt,value
2018-07-17T00:00:34.993Z,9.07
2018-07-17T00:03:06.125Z,9.43
2018-07-17T00:05:37.225Z,9.87
2018-07-17T00:08:08.532Z,10.43
2018-07-17T00:10:39.795Z,10.17
2018-07-17T00:13:11.259Z,9.93
2018-07-17T00:15:42.372Z,10.57
2018-07-17T00:18:13.829Z,9.37
2018-07-17T00:20:45.408Z,10.10
2018-07-17T00:23:16.508Z,9.33
2018-07-17T00:25:47.783Z,8.97
2018-07-17T00:28:18.914Z,9.73
2018-07-17T00:30:50.162Z,9.00
2018-07-17T00:33:21.663Z,10.40
2018-07-17T00:35:52.951Z,9.03
2018-07-17T00:38:24.051Z,11.93
2018-07-17T00:40:55.359Z,10.00
2018-07-17T00:43:26.549Z,8.33
2018-07-17T00:45:57.678Z,9.00
2018-07-17T00:48:28.699Z,9.53
2018-07-17T00:50:59.623Z,10.50
2018-07-17T00:53:30.837Z,8.70
2018-07-17T00:56:01.923Z,8.67
2018-07-17T00:58:33.019Z,8.50
2018-07-17T01:01:02.777Z,8.97
2018-07-17T01:03:38.791Z,8.80
2018-07-17T01:06:14.659Z,10.77
2018-07-17T01:08:50.496Z,8.43
2018-07-17T01:11:26.243Z,7.97
2018-07-17T01:15:03.045Z,9.13
2018-07-17T01:17:35.758Z,8.27
2018-07-17T01:20:07.015Z,8.90
2018-07-17T01:22:38.272Z,10.73
2018-07-17T01:25:09.931Z,9.10
2018-07-17T01:27:41.030Z,8.70
2018-07-17T01:30:12.026Z,9.17
2018-07-17T01:32:43.145Z,8.43
2018-07-17T01:35:14.320Z,10.30
2018-07-17T01:37:45.498Z,8.50
2018-07-17T01:40:16.883Z,9.70
2018-07-17T01:42:48.016Z,11.10
2018-07-17T01:45:19.235Z,9.43
2018-07-17T01:47:50.350Z,8.87
2018-07-17T01:50:21.632Z,10.80
2018-07-17T01:52:52.607Z,10.70
2018-07-17T01:55:23.663Z,9.13
2018-07-17T01:57:54.855Z,11.10
2018-07-17T02:00:26.008Z,15.10
2018-07-17T02:02:57.720Z,9.57
2018-07-17T02:05:28.987Z,10.17
2018-07-17T02:08:00.413Z,10.20
2018-07-17T02:10:31.699Z,10.63
2018-07-17T02:13:02.811Z,9.90
2018-07-17T02:15:34.111Z,9.73
2018-07-17T02:18:05.339Z,12.20
2018-07-17T02:20:37.640Z,9.20
2018-07-17T02:23:07.973Z,12.87
2018-07-17T02:25:39.149Z,9.60
2018-07-17T02:28:10.476Z,10.23
2018-07-17T02:30:42.066Z,10.07
2018-07-17T02:33:13.402Z,10.37
2018-07-17T02:35:44.615Z,10.43
2018-07-17T02:38:15.797Z,10.73
2018-07-17T02:40:46.956Z,10.97
2018-07-17T02:43:18.171Z,11.17
2018-07-17T02:45:49.392Z,11.00
2018-07-17T02:48:20.492Z,10.90
2018-07-17T02:50:51.712Z,10.63
2018-07-17T02:53:22.799Z,11.10
2018-07-17T02:55:53.967Z,10.93
2018-07-17T02:58:25.283Z,11.20
2018-07-17T03:00:56.691Z,10.87
2018-07-17T03:03:27.871Z,11.37
2018-07-17T03:05:59.076Z,10.93
2018-07-17T03:08:30.324Z,11.73
2018-07-17T03:11:01.364Z,12.30
2018-07-17T03:13:32.422Z,11.57
2018-07-17T03:16:03.468Z,11.43
2018-07-17T03:18:35.248Z,11.47
2018-07-17T03:21:06.312Z,10.73
2018-07-17T03:23:37.439Z,11.10
2018-07-17T03:26:08.596Z,11.00
2018-07-17T03:28:39.751Z,11.87
2018-07-17T03:31:11.264Z,12.27
2018-07-17T03:33:42.421Z,11.97
2018-07-17T03:36:13.560Z,11.80
2018-07-17T03:38:44.866Z,11.70
2018-07-17T03:41:16.039Z,11.87
2018-07-17T03:43:47.268Z,12.57
2018-07-17T03:46:18.316Z,13.27
2018-07-17T03:48:49.480Z,12.83
2018-07-17T03:51:20.685Z,13.03
2018-07-17T03:53:51.953Z,12.90
2018-07-17T03:56:23.189Z,13.03
2018-07-17T03:58:54.524Z,12.87
2018-07-17T04:01:25.980Z,12.80
2018-07-17T04:03:57.299Z,11.83
2018-07-17T04:06:28.560Z,12.10
2018-07-17T04:08:59.629Z,12.33
2018-07-17T04:11:31.027Z,13.57
2018-07-17T04:14:02.341Z,14.43
2018-07-17T04:16:33.373Z,15.77
2018-07-17T04:19:04.708Z,16.47
2018-07-17T04:21:35.903Z,15.43
2018-07-17T04:24:06.197Z,15.23
2018-07-17T04:26:37.423Z,15.73
2018-07-17T04:29:08.668Z,16.03
2018-07-17T04:31:39.937Z,14.97
2018-07-17T04:34:11.255Z,14.40
2018-07-17T04:36:42.576Z,17.60
2018-07-17T04:39:14.991Z,15.07
2018-07-17T04:41:46.223Z,14.47
2018-07-17T04:44:17.550Z,15.00
2018-07-17T04:46:48.620Z,15.60
2018-07-17T04:49:19.930Z,17.97
2018-07-17T04:51:51.152Z,16.77
2018-07-17T04:54:22.634Z,18.10
2018-07-17T04:56:53.819Z,19.57
2018-07-17T04:59:24.943Z,19.53
2018-07-17T05:01:56.040Z,21.90
2018-07-17T05:04:27.334Z,24.73
2018-07-17T05:06:58.548Z,21.27
2018-07-17T05:09:30.235Z,21.07
2018-07-17T05:12:01.570Z,20.17
2018-07-17T05:14:32.848Z,18.00
2018-07-17T05:17:04.005Z,16.60
2018-07-17T05:19:35.327Z,16.40
2018-07-17T05:22:06.480Z,17.80
2018-07-17T05:24:37.693Z,16.77
2018-07-17T05:27:09.102Z,16.93
2018-07-17T05:29:40.420Z,17.80
2018-07-17T05:32:11.735Z,17.57
2018-07-17T05:34:43.160Z,18.50
2018-07-17T05:37:14.515Z,16.90
2018-07-17T05:39:45.920Z,18.50
2018-07-17T05:42:17.210Z,18.37
2018-07-17T05:44:48.493Z,22.17
2018-07-17T05:47:19.778Z,21.20
2018-07-17T05:49:50.992Z,21.87
2018-07-17T05:52:22.426Z,24.03
2018-07-17T05:54:53.798Z,24.60
2018-07-17T05:57:25.065Z,24.17
2018-07-17T05:59:56.318Z,23.03
2018-07-17T06:02:27.697Z,22.17
2018-07-17T06:04:58.996Z,22.23
2018-07-17T06:07:30.206Z,21.03
2018-07-17T06:10:01.515Z,21.60
2018-07-17T06:12:33.044Z,21.00
2018-07-17T06:15:04.332Z,22.00
2018-07-17T06:17:35.841Z,22.90
2018-07-17T06:20:07.999Z,21.27
2018-07-17T06:22:39.608Z,21.43
2018-07-17T06:25:11.323Z,21.43
2018-07-17T06:27:42.778Z,23.33
2018-07-17T06:30:13.970Z,21.70
2018-07-17T06:32:45.355Z,22.70
2018-07-17T06:35:16.703Z,23.97
2018-07-17T06:37:47.868Z,23.90
2018-07-17T06:40:19.168Z,22.30
2018-07-17T06:42:50.515Z,21.40
2018-07-17T06:45:21.924Z,21.13
2018-07-17T06:47:53.277Z,20.73
2018-07-17T06:50:24.731Z,22.83
2018-07-17T06:52:56.059Z,16.00
2018-07-17T06:55:27.368Z,14.17
2018-07-17T06:57:58.675Z,15.93
2018-07-17T07:00:29.942Z,17.90
2018-07-17T07:03:01.353Z,20.67
2018-07-17T07:05:32.615Z,19.73
2018-07-17T07:08:03.741Z,22.67
2018-07-17T07:10:34.973Z,26.60
2018-07-17T07:13:06.191Z,25.40
2018-07-17T07:15:37.459Z,25.90
2018-07-17T07:18:08.870Z,27.10
2018-07-17T07:20:39.955Z,24.70
2018-07-17T07:23:11.198Z,26.93
2018-07-17T07:25:42.586Z,29.07
2018-07-17T07:28:12.953Z,30.17
2018-07-17T07:30:44.160Z,33.73
2018-07-17T07:33:15.373Z,33.03
2018-07-17T07:35:46.597Z,36.13
2018-07-17T07:38:17.980Z,38.07
2018-07-17T07:40:49.277Z,37.43
2018-07-17T07:43:20.486Z,41.33
2018-07-17T07:45:51.736Z,39.83
2018-07-17T07:48:22.991Z,41.60
2018-07-17T07:50:54.453Z,42.00
2018-07-17T07:53:25.812Z,39.07
2018-07-17T07:55:57.110Z,44.20
2018-07-17T07:58:28.434Z,45.07
2018-07-17T08:00:59.778Z,44.97
2018-07-17T08:03:30.967Z,43.93
2018-07-17T08:06:02.260Z,47.20
2018-07-17T08:08:33.500Z,44.93
2018-07-17T08:11:04.686Z,44.77
2018-07-17T08:13:35.808Z,44.33
2018-07-17T08:16:07.142Z,45.77
2018-07-17T08:18:38.287Z,42.00
2018-07-17T08:21:09.635Z,40.27
2018-07-17T08:23:40.920Z,36.67
2018-07-17T08:26:12.265Z,34.17
2018-07-17T08:28:43.598Z,28.37
2018-07-17T08:31:15.181Z,23.37
2018-07-17T08:33:46.463Z,26.37
2018-07-17T08:36:17.825Z,26.70
2018-07-17T08:38:49.094Z,26.47
2018-07-17T08:41:20.443Z,26.80
2018-07-17T08:43:51.775Z,26.87
2018-07-17T08:46:22.897Z,28.43
2018-07-17T08:48:54.101Z,27.13
2018-07-17T08:51:24.430Z,23.47
2018-07-17T08:53:55.847Z,23.50
2018-07-17T08:56:27.010Z,21.57
2018-07-17T08:58:58.150Z,20.50
2018-07-17T09:01:29.433Z,20.37
2018-07-17T09:04:00.619Z,24.43
2018-07-17T09:06:31.954Z,17.67
2018-07-17T09:09:03.284Z,18.47
2018-07-17T09:11:34.520Z,17.13
2018-07-17T09:14:05.875Z,16.03
2018-07-17T09:16:37.199Z,15.47
2018-07-17T09:19:08.438Z,14.90
2018-07-17T09:21:39.770Z,14.47
2018-07-17T09:24:11.117Z,15.03
2018-07-17T09:26:42.492Z,14.83
2018-07-17T09:29:13.745Z,15.80
2018-07-17T09:31:45.117Z,14.83
2018-07-17T09:34:16.456Z,12.67
2018-07-17T09:36:47.850Z,12.23
2018-07-17T09:39:19.373Z,11.10
2018-07-17T09:41:50.793Z,11.80
2018-07-17T09:44:22.147Z,11.17
2018-07-17T09:46:53.375Z,11.47
2018-07-17T09:49:24.600Z,11.27
2018-07-17T09:51:55.888Z,11.63
2018-07-17T09:54:27.230Z,12.07
2018-07-17T09:56:58.466Z,11.80
2018-07-17T09:59:29.653Z,10.53
2018-07-17T10:02:05.418Z,12.13
2018-07-17T10:04:36.547Z,11.07
2018-07-17T10:07:08.001Z,11.43
2018-07-17T10:09:39.244Z,11.60
2018-07-17T10:12:10.435Z,12.30
2018-07-17T10:14:41.569Z,11.87
2018-07-17T10:17:12.738Z,13.60
2018-07-17T10:19:44.042Z,11.50
2018-07-17T10:22:14.335Z,12.73
2018-07-17T10:24:45.709Z,13.23
2018-07-17T10:27:17.340Z,16.97
2018-07-17T10:29:48.377Z,13.63
2018-07-17T10:32:19.852Z,12.80
2018-07-17T10:34:51.126Z,13.13
2018-07-17T10:37:22.592Z,13.30
2018-07-17T10:39:53.922Z,13.67
2018-07-17T10:42:25.395Z,14.60
2018-07-17T10:44:56.585Z,14.60
2018-07-17T10:47:27.740Z,13.87
2018-07-17T10:49:59.000Z,15.27
2018-07-17T10:52:30.158Z,15.90
2018-07-17T10:55:01.471Z,15.43
2018-07-17T10:57:32.771Z,16.53
2018-07-17T11:00:04.150Z,15.97
2018-07-17T11:02:35.290Z,15.63
2018-07-17T11:05:06.637Z,15.73
2018-07-17T11:07:38.231Z,15.73
2018-07-17T11:10:09.628Z,15.60
2018-07-17T11:12:40.821Z,15.80
2018-07-17T11:15:12.021Z,15.27
2018-07-17T11:17:43.103Z,15.53
2018-07-17T11:20:14.358Z,14.07
2018-07-17T11:22:45.717Z,12.90
2018-07-17T11:25:17.027Z,13.37
2018-07-17T11:27:48.292Z,14.50
2018-07-17T11:30:19.638Z,13.60
2018-07-17T11:32:50.922Z,14.43
2018-07-17T11:35:22.129Z,13.50
2018-07-17T11:37:53.497Z,14.30
2018-07-17T11:40:24.705Z,14.03
2018-07-17T11:42:56.193Z,14.10
2018-07-17T11:45:27.558Z,14.47
2018-07-17T11:47:58.955Z,14.40
2018-07-17T11:50:30.148Z,13.57
2018-07-17T11:53:01.321Z,13.97
2018-07-17T11:55:33.057Z,12.87
2018-07-17T11:58:04.388Z,12.60
2018-07-17T12:00:35.448Z,11.67
2018-07-17T12:03:06.829Z,12.17
2018-07-17T12:05:38.126Z,12.47
2018-07-17T12:08:09.550Z,11.90
2018-07-17T12:10:40.648Z,12.40
2018-07-17T12:13:11.908Z,12.97
2018-07-17T12:15:43.307Z,12.20
2018-07-17T12:18:14.550Z,12.07
2018-07-17T12:20:45.735Z,11.63
2018-07-17T12:23:16.948Z,11.80
2018-07-17T12:25:48.184Z,11.50
2018-07-17T12:28:19.309Z,11.90
2018-07-17T12:30:50.373Z,11.40
2018-07-17T12:33:21.700Z,11.20
2018-07-17T12:35:53.010Z,11.33
2018-07-17T12:38:24.285Z,11.33
2018-07-17T12:40:55.500Z,11.97
2018-07-17T12:43:26.877Z,11.47
2018-07-17T12:45:58.423Z,11.40
2018-07-17T12:48:29.689Z,15.63
2018-07-17T12:51:01.097Z,11.17
2018-07-17T12:53:32.468Z,11.67
2018-07-17T12:56:03.717Z,11.40
2018-07-17T12:58:35.044Z,11.33
2018-07-17T13:01:06.463Z,11.27
2018-07-17T13:03:37.768Z,12.17
2018-07-17T13:06:08.979Z,11.50
2018-07-17T13:08:40.165Z,11.03
2018-07-17T13:11:11.985Z,13.63
2018-07-17T13:13:43.243Z,9.07
2018-07-17T13:16:14.312Z,10.07
2018-07-17T13:18:45.566Z,9.20
2018-07-17T13:21:16.903Z,8.37
2018-07-17T13:23:48.208Z,8.27
2018-07-17T13:26:19.534Z,9.63
2018-07-17T13:28:50.743Z,8.77
2018-07-17T13:31:22.026Z,7.80
2018-07-17T13:33:53.344Z,8.13
2018-07-17T13:36:24.600Z,9.20
2018-07-17T13:38:56.118Z,7.93
2018-07-17T13:41:27.816Z,9.23
2018-07-17T13:43:59.265Z,8.23
2018-07-17T13:46:30.776Z,9.67
2018-07-17T13:49:02.139Z,7.93
2018-07-17T13:51:33.536Z,8.20
2018-07-17T13:54:04.860Z,7.77
2018-07-17T13:56:36.200Z,7.70
2018-07-17T13:59:07.615Z,6.40
2018-07-17T14:01:38.901Z,7.30
2018-07-17T14:04:10.200Z,7.20
2018-07-17T14:06:41.386Z,6.67
2018-07-17T14:09:12.905Z,7.47
2018-07-17T14:11:44.362Z,6.90
2018-07-17T14:14:15.686Z,6.13
2018-07-17T14:16:46.971Z,6.93
2018-07-17T14:19:18.364Z,5.53
2018-07-17T14:21:49.704Z,6.60
2018-07-17T14:24:21.017Z,6.93
2018-07-17T14:26:52.487Z,6.33
2018-07-17T14:29:23.901Z,5.60
2018-07-17T14:31:55.376Z,9.70
2018-07-17T14:34:26.679Z,7.40
2018-07-17T14:36:58.090Z,6.23
2018-07-17T14:39:29.513Z,6.30
2018-07-17T14:42:00.936Z,5.03
2018-07-17T14:44:32.383Z,5.10
2018-07-17T14:47:03.861Z,5.90
2018-07-17T14:49:35.338Z,6.33
2018-07-17T14:52:06.902Z,6.93
2018-07-17T14:54:38.503Z,5.40
2018-07-17T14:57:09.740Z,5.97
2018-07-17T14:59:41.076Z,6.40
2018-07-17T15:02:12.292Z,5.00
2018-07-17T15:04:43.454Z,5.53
2018-07-17T15:07:13.771Z,4.17
2018-07-17T15:09:45.102Z,4.77
2018-07-17T15:12:16.592Z,3.97
2018-07-17T15:14:47.773Z,4.10
2018-07-17T15:17:19.174Z,4.20
2018-07-17T15:19:50.947Z,4.20
2018-07-17T15:22:22.371Z,4.40
2018-07-17T15:24:53.675Z,4.80
2018-07-17T15:27:29.023Z,5.07
2018-07-17T15:30:00.744Z,3.93
2018-07-17T15:32:32.029Z,3.93
2018-07-17T15:35:03.456Z,4.47
2018-07-17T15:37:34.848Z,3.90
2018-07-17T15:40:06.273Z,4.70
2018-07-17T15:42:37.705Z,4.80
2018-07-17T15:45:09.679Z,4.10
2018-07-17T15:47:41.133Z,3.53
2018-07-17T15:50:12.460Z,3.80
2018-07-17T15:52:44.271Z,3.90
2018-07-17T15:55:15.706Z,9.10
2018-07-17T15:57:47.134Z,3.50
2018-07-17T16:00:18.468Z,3.07
2018-07-17T16:02:49.950Z,3.00
2018-07-17T16:05:21.258Z,3.10
2018-07-17T16:07:52.710Z,6.53
2018-07-17T16:10:24.106Z,2.53
2018-07-17T16:12:55.430Z,3.93
2018-07-17T16:15:26.751Z,3.27
2018-07-17T16:17:58.052Z,3.20
2018-07-17T16:20:29.549Z,2.60
2018-07-17T16:23:00.870Z,2.87
2018-07-17T16:25:32.330Z,3.00
2018-07-17T16:28:03.681Z,2.60
2018-07-17T16:30:34.998Z,2.47
2018-07-17T16:33:06.508Z,3.33
2018-07-17T16:35:37.998Z,2.63
2018-07-17T16:38:09.446Z,4.10
2018-07-17T16:40:40.904Z,4.77
2018-07-17T16:43:12.674Z,2.63
2018-07-17T16:45:44.339Z,4.07
2018-07-17T16:48:17.122Z,3.43
2018-07-17T16:50:48.643Z,4.77
2018-07-17T16:53:20.001Z,2.17
2018-07-17T16:55:51.337Z,2.77
2018-07-17T16:58:22.986Z,3.23
2018-07-17T17:00:54.390Z,4.83
2018-07-17T17:03:25.702Z,2.83
2018-07-17T17:05:56.986Z,2.97
2018-07-17T17:08:28.190Z,1.80
2018-07-17T17:10:59.524Z,1.80
2018-07-17T17:13:30.924Z,2.27
2018-07-17T17:16:02.174Z,2.93
2018-07-17T17:18:33.413Z,1.97
2018-07-17T17:21:04.834Z,2.40
2018-07-17T17:23:36.167Z,3.40
2018-07-17T17:26:07.435Z,2.00
2018-07-17T17:28:38.740Z,1.70
2018-07-17T17:31:09.957Z,2.13
2018-07-17T17:33:41.336Z,2.87
2018-07-17T17:36:12.571Z,3.37
2018-07-17T17:38:43.937Z,5.27
2018-07-17T17:41:15.200Z,2.13
2018-07-17T17:43:46.607Z,3.13
2018-07-17T17:46:17.836Z,1.70
2018-07-17T17:48:49.275Z,1.57
2018-07-17T17:51:20.936Z,1.73
2018-07-17T17:53:52.370Z,2.77
2018-07-17T17:56:23.741Z,3.07
2018-07-17T17:58:55.059Z,2.90
2018-07-17T18:01:26.232Z,2.13
2018-07-17T18:03:57.526Z,3.47
2018-07-17T18:06:28.941Z,1.73
2018-07-17T18:09:00.310Z,2.17
2018-07-17T18:11:31.578Z,4.20
2018-07-17T18:14:02.964Z,1.60
2018-07-17T18:16:34.203Z,1.47
2018-07-17T18:19:05.570Z,2.67
2018-07-17T18:21:37.006Z,3.63
2018-07-17T18:24:08.349Z,2.77
2018-07-17T18:26:39.774Z,3.30
2018-07-17T18:29:11.032Z,1.70
2018-07-17T18:31:42.480Z,3.47
2018-07-17T18:34:13.896Z,1.83
2018-07-17T18:36:45.245Z,1.40
2018-07-17T18:39:16.713Z,1.50
2018-07-17T18:41:48.041Z,2.33
2018-07-17T18:44:19.596Z,1.73
2018-07-17T18:46:50.879Z,2.60
2018-07-17T18:49:22.340Z,3.20
2018-07-17T18:51:53.775Z,3.13
2018-07-17T18:54:25.142Z,2.30
2018-07-17T18:56:56.392Z,1.27
2018-07-17T18:59:27.772Z,3.03
2018-07-17T19:01:59.113Z,1.67
2018-07-17T19:04:30.562Z,1.87
2018-07-17T19:07:01.965Z,2.70
2018-07-17T19:09:33.390Z,1.30
2018-07-17T19:12:04.611Z,4.93
2018-07-17T19:14:36.099Z,4.63
2018-07-17T19:17:07.521Z,3.03
2018-07-17T19:19:38.813Z,2.70
2018-07-17T19:22:10.172Z,2.80
2018-07-17T19:24:42.273Z,4.00
2018-07-17T19:27:13.691Z,4.10
2018-07-17T19:29:45.142Z,2.43
2018-07-17T19:32:16.526Z,2.30
2018-07-17T19:34:47.750Z,3.57
2018-07-17T19:37:19.119Z,2.70
2018-07-17T19:39:50.498Z,2.70
2018-07-17T19:42:21.819Z,3.67
2018-07-17T19:44:53.410Z,2.90
2018-07-17T19:47:24.863Z,2.93
2018-07-17T19:49:56.454Z,2.97
2018-07-17T19:52:28.202Z,3.90
2018-07-17T19:54:59.691Z,3.53
2018-07-17T19:57:31.113Z,3.20
2018-07-17T20:00:02.525Z,4.97
2018-07-17T20:02:34.040Z,2.60
2018-07-17T20:05:05.599Z,3.10
2018-07-17T20:07:37.003Z,5.83
2018-07-17T20:10:08.303Z,2.50
2018-07-17T20:12:39.642Z,2.60
2018-07-17T20:15:11.162Z,3.80
2018-07-17T20:17:43.791Z,3.83
2018-07-17T20:20:16.605Z,2.70
2018-07-17T20:22:48.047Z,2.67
2018-07-17T20:25:19.253Z,5.43
2018-07-17T20:27:50.557Z,3.87
2018-07-17T20:30:21.968Z,2.90
2018-07-17T20:32:53.452Z,2.47
2018-07-17T20:35:24.748Z,2.70
2018-07-17T20:37:56.554Z,3.83
2018-07-17T20:40:28.241Z,3.43
2018-07-17T20:42:59.989Z,4.20
2018-07-17T20:45:31.403Z,4.70
2018-07-17T20:48:02.877Z,3.23
2018-07-17T20:50:34.341Z,4.40
2018-07-17T20:53:05.838Z,3.07
2018-07-17T20:55:37.534Z,3.33
2018-07-17T20:58:09.141Z,4.77
2018-07-17T21:00:40.534Z,2.93
2018-07-17T21:03:11.788Z,3.13
2018-07-17T21:05:43.229Z,4.60
2018-07-17T21:08:14.676Z,4.10
2018-07-17T21:10:46.472Z,2.83
2018-07-17T21:13:17.890Z,3.07
2018-07-17T21:15:49.209Z,2.73
2018-07-17T21:18:20.673Z,3.70
2018-07-17T21:20:51.946Z,3.07
2018-07-17T21:23:23.307Z,2.93
2018-07-17T21:25:54.635Z,2.50
2018-07-17T21:28:25.953Z,3.80
2018-07-17T21:30:57.335Z,2.60
2018-07-17T21:33:28.640Z,3.30
2018-07-17T21:36:00.182Z,2.50
2018-07-17T21:38:31.679Z,3.50
2018-07-17T21:41:03.129Z,2.57
2018-07-17T21:43:34.431Z,3.33
2018-07-17T21:46:05.841Z,3.50
2018-07-17T21:48:37.178Z,4.00
2018-07-17T21:51:08.597Z,2.50
2018-07-17T21:53:39.812Z,3.50
2018-07-17T21:56:11.156Z,5.27
2018-07-17T21:58:42.669Z,3.30
2018-07-17T22:01:14.007Z,2.70
2018-07-17T22:03:45.530Z,3.50
2018-07-17T22:06:16.927Z,2.97
2018-07-17T22:08:48.401Z,3.40
2018-07-17T22:11:19.730Z,3.77
2018-07-17T22:13:51.060Z,3.23
2018-07-17T22:16:22.380Z,5.67
2018-07-17T22:18:53.706Z,3.30
2018-07-17T22:21:24.956Z,3.33
2018-07-17T22:23:56.379Z,3.70
2018-07-17T22:26:27.682Z,4.20
2018-07-17T22:28:59.147Z,4.37
2018-07-17T22:31:30.511Z,3.70
2018-07-17T22:34:02.269Z,3.70
2018-07-17T22:36:33.578Z,3.40
2018-07-17T22:39:05.946Z,3.77
2018-07-17T22:41:37.289Z,4.17
2018-07-17T22:44:09.164Z,3.70
2018-07-17T22:46:40.593Z,5.77
2018-07-17T22:49:12.220Z,3.80
2018-07-17T22:51:43.686Z,4.70
2018-07-17T22:54:15.140Z,3.57
2018-07-17T22:56:46.517Z,3.70
2018-07-17T22:59:18.591Z,3.63
2018-07-17T23:01:50.192Z,3.87
2018-07-17T23:04:21.515Z,4.47
2018-07-17T23:06:52.857Z,3.87
2018-07-17T23:09:24.066Z,3.63
2018-07-17T23:11:55.381Z,4.47
2018-07-17T23:14:26.777Z,4.30
2018-07-17T23:16:58.117Z,4.00
2018-07-17T23:19:29.281Z,4.07
2018-07-17T23:22:00.564Z,4.10
2018-07-17T23:24:31.872Z,4.20
2018-07-17T23:27:03.099Z,4.60
2018-07-17T23:29:34.461Z,6.27
2018-07-17T23:32:05.708Z,5.43
2018-07-17T23:34:37.157Z,3.90
2018-07-17T23:37:08.600Z,4.27
2018-07-17T23:39:40.169Z,6.60
2018-07-17T23:42:11.421Z,4.20
2018-07-17T23:44:42.732Z,7.33
2018-07-17T23:47:14.071Z,4.03
2018-07-17T23:49:45.467Z,4.30
2018-07-17T23:52:16.799Z,5.13
2018-07-17T23:54:48.062Z,4.07
2018-07-17T23:57:19.692Z,4.40
2018-07-17T23:59:51.013Z,4.17
